This is the latest recevied weather packets stored in our database for station/object EB5AGF-13. If no packets are shown the sender has not sent any weather packets the latest 10 day(s).
| Time | Temp. | Humidity | Pressure | Rain* | Wind** | Luminosity | Snow |
|---|---|---|---|---|---|---|---|
| 1777541470 | 21.11° C | 77% | 1013.7 hPa | 0 mm | 1.34 m/s, 235° | 494 W/m² | - |
| 1777541166 | 20.56° C | 79% | 1013.7 hPa | 0 mm | 0.45 m/s, 355° | 481 W/m² | - |
| 1777540862 | 20.56° C | 79% | 1013.7 hPa | 0 mm | 1.79 m/s, 172° | 468 W/m² | - |
| 1777540558 | 20.56° C | 78% | 1013.8 hPa | 0 mm | 1.34 m/s, 142° | 457 W/m² | - |
| 1777540253 | 20.56° C | 80% | 1013.7 hPa | 0 mm | 1.34 m/s, 194° | 443 W/m² | - |
| 1777539950 | 20° C | 81% | 1013.7 hPa | 0 mm | 0.45 m/s, 298° | 435 W/m² | - |
| 1777539645 | 20° C | 82% | 1013.7 hPa | 0 mm | 0.89 m/s, 236° | 420 W/m² | - |
| 1777539341 | 19.44° C | 83% | 1013.7 hPa | 0 mm | 2.68 m/s, 182° | 410 W/m² | - |
| 1777539037 | 20° C | 82% | 1013.7 hPa | 0 mm | 0.45 m/s, 301° | 393 W/m² | - |
| 1777538734 | 19.44° C | 83% | 1013.5 hPa | 0 mm | 1.79 m/s, 237° | 383 W/m² | - |
| 1777538430 | 20° C | 81% | 1013.7 hPa | 0 mm | 3.13 m/s, 176° | 370 W/m² | - |
| 1777538126 | 20° C | 80% | 1013.7 hPa | 0 mm | 1.79 m/s, 150° | 360 W/m² | - |
| 1777537821 | 20° C | 78% | 1013.6 hPa | 0 mm | 1.79 m/s, 167° | 348 W/m² | - |
| 1777537519 | 20° C | 79% | 1013.6 hPa | 0 mm | 0.89 m/s, 141° | 337 W/m² | - |
| 1777537214 | 20.56° C | 77% | 1013.6 hPa | 0 mm | 1.79 m/s, 162° | 319 W/m² | - |
| 1777536910 | 20.56° C | 77% | 1013.5 hPa | 0 mm | 0.89 m/s, 192° | 307 W/m² | - |
| 1777536606 | 20° C | 77% | 1013.3 hPa | 0 mm | 0.89 m/s, 120° | 294 W/m² | - |
| 1777536302 | 20° C | 77% | 1013.5 hPa | 0 mm | 0.89 m/s, 139° | 277 W/m² | - |
| 1777535998 | 20° C | 77% | 1013.4 hPa | 0 mm | 0.45 m/s, 186° | 267 W/m² | - |
| 1777535693 | 20° C | 75% | 1013.7 hPa | 0 mm | 0.89 m/s, 221° | 257 W/m² | - |
| 1777535390 | 20° C | 75% | 1013.4 hPa | 0 mm | 0 m/s | 244 W/m² | - |
| 1777535086 | 20° C | 76% | 1013.6 hPa | 0 mm | 0 m/s | 231 W/m² | - |
| 1777534781 | 20° C | 75% | 1013.5 hPa | 0 mm | 0 m/s | 218 W/m² | - |
| 1777534478 | 20° C | 77% | 1013.3 hPa | 0 mm | 0 m/s | 208 W/m² | - |
| 1777534172 | 19.44° C | 78% | 1013.5 hPa | 0 mm | 0 m/s | 196 W/m² | - |
* Rain latest hour (hover to see other rain measurements)
** Current wind speed in m/s (hover to see current wind gust speed)